createdAt,value
2023-06-28T00:00:47.615Z,0
2023-06-28T00:01:30.000Z,0
2023-06-28T00:03:20.100Z,0
2023-06-28T00:04:36.355Z,0
2023-06-28T00:05:52.596Z,0
2023-06-28T00:07:08.848Z,0
2023-06-28T00:08:25.099Z,0
2023-06-28T00:09:41.356Z,0
2023-06-28T00:10:57.588Z,0
2023-06-28T00:12:13.843Z,0
2023-06-28T00:13:29.158Z,0
2023-06-28T00:14:45.398Z,0
2023-06-28T00:16:01.644Z,0
2023-06-28T00:17:17.898Z,0
2023-06-28T00:18:34.145Z,0
2023-06-28T00:19:50.396Z,0
2023-06-28T00:21:06.639Z,0
2023-06-28T00:22:22.889Z,0
2023-06-28T00:23:39.138Z,0
2023-06-28T00:24:55.385Z,0
2023-06-28T00:26:11.630Z,0
2023-06-28T00:27:27.877Z,0
2023-06-28T00:30:00.405Z,0
2023-06-28T00:31:15.687Z,0
2023-06-28T00:32:31.934Z,0
2023-06-28T00:33:48.181Z,0
2023-06-28T00:35:04.451Z,0
2023-06-28T00:36:20.679Z,0
2023-06-28T00:37:36.929Z,0
2023-06-28T00:38:53.187Z,0
2023-06-28T00:40:09.426Z,0
2023-06-28T00:41:25.672Z,0
2023-06-28T00:42:41.920Z,0
2023-06-28T00:43:58.166Z,0
2023-06-28T00:45:14.420Z,0
2023-06-28T00:45:57.000Z,0
2023-06-28T00:47:45.982Z,0
2023-06-28T00:50:18.472Z,0
2023-06-28T00:51:34.726Z,0
2023-06-28T00:52:50.973Z,0
2023-06-28T00:54:07.218Z,0
2023-06-28T00:55:23.474Z,0
2023-06-28T00:56:39.725Z,0
2023-06-28T00:57:55.967Z,0
2023-06-28T00:59:12.232Z,0
2023-06-28T01:00:28.471Z,0
2023-06-28T01:01:44.722Z,0
2023-06-28T01:03:00.977Z,0
2023-06-28T01:04:17.219Z,0
2023-06-28T01:04:59.000Z,0
2023-06-28T01:06:48.787Z,0
2023-06-28T01:08:05.027Z,0
2023-06-28T01:09:21.278Z,0
2023-06-28T01:10:37.531Z,0
2023-06-28T01:11:53.785Z,0
2023-06-28T01:13:10.025Z,0
2023-06-28T01:14:26.285Z,0
2023-06-28T01:15:42.529Z,0
2023-06-28T01:16:58.777Z,0
2023-06-28T01:18:15.026Z,0
2023-06-28T01:19:31.274Z,0
2023-06-28T01:20:47.527Z,0
2023-06-28T01:22:02.842Z,0
2023-06-28T01:23:19.089Z,0
2023-06-28T01:24:35.336Z,0
2023-06-28T01:25:51.581Z,0
2023-06-28T01:27:07.845Z,0
2023-06-28T01:28:24.093Z,0
2023-06-28T01:29:40.342Z,0
2023-06-28T01:30:56.588Z,0
2023-06-28T01:32:12.832Z,0
2023-06-28T01:33:29.086Z,0
2023-06-28T01:34:11.000Z,0
2023-06-28T01:36:01.584Z,0
2023-06-28T01:37:17.838Z,0
2023-06-28T01:38:33.139Z,0
2023-06-28T01:39:49.394Z,0
2023-06-28T01:41:05.638Z,0
2023-06-28T01:42:21.893Z,0
2023-06-28T01:43:38.149Z,0
2023-06-28T01:44:54.390Z,0
2023-06-28T01:46:10.649Z,0
2023-06-28T01:47:26.894Z,0
2023-06-28T01:48:43.140Z,0
2023-06-28T01:49:59.385Z,0
2023-06-28T01:51:15.641Z,0
2023-06-28T01:52:31.909Z,0
2023-06-28T01:53:14.000Z,0
2023-06-28T01:55:03.451Z,0
2023-06-28T01:55:46.000Z,0
2023-06-28T01:57:35.954Z,0
2023-06-28T01:58:52.197Z,0
2023-06-28T02:00:08.452Z,0
2023-06-28T02:01:24.696Z,0
2023-06-28T02:02:40.950Z,0
2023-06-28T02:03:57.199Z,0
2023-06-28T02:05:13.449Z,0
2023-06-28T02:06:29.700Z,0
2023-06-28T02:07:45.949Z,0
2023-06-28T02:09:02.201Z,0
2023-06-28T02:09:45.000Z,0
2023-06-28T02:11:33.758Z,0
2023-06-28T02:12:50.007Z,0
2023-06-28T02:14:06.253Z,0
2023-06-28T02:15:22.501Z,0
2023-06-28T02:16:38.754Z,0
2023-06-28T02:17:55.010Z,0
2023-06-28T02:19:11.259Z,0
2023-06-28T02:20:27.509Z,0
2023-06-28T02:21:43.755Z,0
2023-06-28T02:23:00.015Z,0
2023-06-28T02:24:16.262Z,0
2023-06-28T02:25:32.505Z,0
2023-06-28T02:26:48.766Z,0
2023-06-28T02:28:05.012Z,0
2023-06-28T02:29:20.316Z,0
2023-06-28T02:30:36.562Z,0
2023-06-28T02:31:52.813Z,0
2023-06-28T02:33:09.063Z,0
2023-06-28T02:33:51.000Z,0
2023-06-28T02:35:41.561Z,0
2023-06-28T02:36:57.816Z,0
2023-06-28T02:38:14.069Z,0
2023-06-28T02:38:56.000Z,0
2023-06-28T02:40:46.563Z,0
2023-06-28T02:42:02.812Z,0
2023-06-28T02:43:19.061Z,0
2023-06-28T02:44:35.321Z,0
2023-06-28T02:45:50.626Z,0
2023-06-28T02:47:06.876Z,0
2023-06-28T02:48:23.128Z,0
2023-06-28T02:49:39.372Z,0
2023-06-28T02:50:55.619Z,0
2023-06-28T02:52:11.875Z,0
2023-06-28T02:53:28.127Z,0
2023-06-28T02:54:44.377Z,0
2023-06-28T02:56:00.626Z,0
2023-06-28T02:57:16.900Z,0
2023-06-28T02:58:33.126Z,0
2023-06-28T02:59:15.000Z,0
2023-06-28T03:01:05.636Z,0
2023-06-28T03:02:21.879Z,0
2023-06-28T03:03:38.132Z,0
2023-06-28T03:04:53.428Z,0
2023-06-28T03:06:09.676Z,0
2023-06-28T03:07:25.936Z,0
2023-06-28T03:08:42.195Z,0
2023-06-28T03:09:58.434Z,0
2023-06-28T03:11:14.687Z,0
2023-06-28T03:12:30.934Z,0
2023-06-28T03:13:47.199Z,0
2023-06-28T03:15:03.437Z,0
2023-06-28T03:16:19.677Z,0
2023-06-28T03:17:35.939Z,0
2023-06-28T03:18:18.000Z,0
2023-06-28T03:20:08.429Z,0
2023-06-28T03:21:24.698Z,0
2023-06-28T03:22:39.981Z,0
2023-06-28T03:23:56.229Z,0
2023-06-28T03:25:12.481Z,0
2023-06-28T03:26:28.736Z,5
2023-06-28T03:27:44.982Z,5
2023-06-28T03:29:01.226Z,5
2023-06-28T03:30:17.475Z,5
2023-06-28T03:31:33.724Z,5
2023-06-28T03:32:49.976Z,5
2023-06-28T03:34:06.230Z,5
2023-06-28T03:35:22.474Z,5
2023-06-28T03:36:38.728Z,5
2023-06-28T03:37:54.971Z,5
2023-06-28T03:39:10.296Z,5
2023-06-28T03:40:26.545Z,11
2023-06-28T03:41:42.792Z,11
2023-06-28T03:42:59.037Z,11
2023-06-28T03:44:15.287Z,11
2023-06-28T03:45:31.535Z,16
2023-06-28T03:46:47.792Z,16
2023-06-28T03:48:04.031Z,16
2023-06-28T03:49:20.289Z,22
2023-06-28T03:50:36.532Z,22
2023-06-28T03:51:52.784Z,28
2023-06-28T03:53:09.034Z,28
2023-06-28T03:54:25.282Z,33
2023-06-28T03:55:41.541Z,39
2023-06-28T03:56:56.850Z,45
2023-06-28T03:58:13.098Z,50
2023-06-28T03:59:29.349Z,56
2023-06-28T04:00:45.606Z,67
2023-06-28T04:02:01.859Z,73
2023-06-28T04:03:18.115Z,84
2023-06-28T04:04:34.351Z,90
2023-06-28T04:05:50.606Z,101
2023-06-28T04:07:06.851Z,106
2023-06-28T04:08:23.105Z,106
2023-06-28T04:09:39.356Z,106
2023-06-28T04:10:55.612Z,101
2023-06-28T04:11:38.000Z,90
2023-06-28T04:13:27.174Z,90
2023-06-28T04:14:43.411Z,84
2023-06-28T04:15:59.666Z,84
2023-06-28T04:17:15.908Z,90
2023-06-28T04:18:32.162Z,90
2023-06-28T04:19:48.417Z,101
2023-06-28T04:21:04.660Z,106
2023-06-28T04:22:20.910Z,106
2023-06-28T04:23:37.167Z,112
2023-06-28T04:24:53.417Z,129
2023-06-28T04:26:09.669Z,157
2023-06-28T04:27:25.914Z,180
2023-06-28T04:28:08.000Z,191
2023-06-28T04:29:57.462Z,180
2023-06-28T04:31:13.723Z,163
2023-06-28T04:32:29.965Z,157
2023-06-28T04:33:46.218Z,151
2023-06-28T04:35:02.465Z,151
2023-06-28T04:36:18.732Z,151
2023-06-28T04:37:34.975Z,157
2023-06-28T04:38:51.217Z,163
2023-06-28T04:40:07.470Z,180
2023-06-28T04:41:23.718Z,196
2023-06-28T04:42:39.974Z,202
2023-06-28T04:43:56.221Z,208
2023-06-28T04:45:12.495Z,208
2023-06-28T04:46:27.776Z,208
2023-06-28T04:47:44.035Z,196
2023-06-28T04:49:00.282Z,185
2023-06-28T04:50:16.539Z,168
2023-06-28T04:51:32.774Z,157
2023-06-28T04:52:49.033Z,151
2023-06-28T04:54:05.280Z,157
2023-06-28T04:55:21.540Z,157
2023-06-28T04:56:37.779Z,163
2023-06-28T04:57:54.028Z,168
2023-06-28T04:59:10.280Z,174
2023-06-28T05:00:26.528Z,180
2023-06-28T05:01:42.784Z,191
2023-06-28T05:02:59.029Z,202
2023-06-28T05:04:14.343Z,208
2023-06-28T05:05:30.592Z,213
2023-06-28T05:06:46.836Z,219
2023-06-28T05:08:03.082Z,230
2023-06-28T05:09:19.374Z,247
2023-06-28T05:10:35.622Z,253
2023-06-28T05:11:51.877Z,253
2023-06-28T05:12:34.000Z,247
2023-06-28T05:14:24.375Z,236
2023-06-28T05:15:40.630Z,236
2023-06-28T05:16:56.876Z,241
2023-06-28T05:18:13.119Z,241
2023-06-28T05:19:29.370Z,264
2023-06-28T05:20:44.675Z,281
2023-06-28T05:22:00.929Z,298
2023-06-28T05:23:17.181Z,303
2023-06-28T05:24:33.435Z,315
2023-06-28T05:25:49.679Z,337
2023-06-28T05:27:05.935Z,360
2023-06-28T05:28:22.184Z,371
2023-06-28T05:29:38.427Z,376
2023-06-28T05:30:54.685Z,399
2023-06-28T05:33:27.182Z,450
2023-06-28T05:34:43.431Z,466
2023-06-28T05:35:59.688Z,489
2023-06-28T05:37:15.937Z,523
2023-06-28T05:38:31.247Z,545
2023-06-28T05:39:47.491Z,534
2023-06-28T05:41:03.740Z,500
2023-06-28T05:42:19.992Z,478
2023-06-28T05:43:36.243Z,483
2023-06-28T05:44:52.495Z,506
2023-06-28T05:46:08.742Z,534
2023-06-28T05:47:24.985Z,568
2023-06-28T05:48:41.237Z,630
2023-06-28T05:49:57.485Z,708
2023-06-28T05:51:13.742Z,765
2023-06-28T05:52:29.992Z,776
2023-06-28T05:53:46.238Z,793
2023-06-28T05:55:02.489Z,826
2023-06-28T05:56:18.733Z,877
2023-06-28T05:57:34.042Z,922
2023-06-28T05:58:50.283Z,961
2023-06-28T06:00:06.539Z,990
2023-06-28T06:01:22.784Z,1012
2023-06-28T06:02:39.032Z,1046
2023-06-28T06:05:11.535Z,1209
2023-06-28T06:06:27.787Z,1226
2023-06-28T06:07:44.035Z,1203
2023-06-28T06:09:00.281Z,1125
2023-06-28T06:10:16.543Z,1074
2023-06-28T06:11:32.785Z,1063
2023-06-28T06:12:49.040Z,1096
2023-06-28T06:14:04.346Z,1147
2023-06-28T06:15:20.588Z,1209
2023-06-28T06:16:36.844Z,1282
2023-06-28T06:17:53.086Z,1355
2023-06-28T06:19:09.337Z,1423
2023-06-28T06:20:25.600Z,1451
2023-06-28T06:21:41.835Z,1456
2023-06-28T06:22:58.092Z,1473
2023-06-28T06:24:14.332Z,1535
2023-06-28T06:25:30.588Z,1620
2023-06-28T06:26:46.842Z,1738
2023-06-28T06:28:03.087Z,1850
2023-06-28T06:29:19.333Z,1901
2023-06-28T06:30:35.587Z,2401
2023-06-28T06:31:50.898Z,2334
2023-06-28T06:33:07.151Z,2401
2023-06-28T06:34:23.419Z,2514
2023-06-28T06:35:39.645Z,2514
2023-06-28T06:36:55.898Z,2323
2023-06-28T06:38:12.142Z,2086
2023-06-28T06:39:28.407Z,1845
2023-06-28T06:40:44.644Z,1676
2023-06-28T06:42:00.902Z,1530
2023-06-28T06:43:17.157Z,1451
2023-06-28T06:44:33.397Z,1372
2023-06-28T06:45:49.647Z,1316
2023-06-28T06:47:05.902Z,1248
2023-06-28T06:48:22.148Z,1220
2023-06-28T06:49:37.458Z,1220
2023-06-28T06:50:53.707Z,1260
2023-06-28T06:52:09.956Z,1243
2023-06-28T06:53:26.208Z,1237
2023-06-28T06:54:42.461Z,1226
2023-06-28T06:55:58.713Z,1215
2023-06-28T06:57:14.963Z,1220
2023-06-28T06:58:31.214Z,1243
2023-06-28T06:59:47.459Z,1260
2023-06-28T07:01:03.708Z,1293
2023-06-28T07:02:19.958Z,1338
2023-06-28T07:03:36.209Z,1372
2023-06-28T07:04:52.472Z,1400
2023-06-28T07:06:07.771Z,1434
2023-06-28T07:07:24.016Z,1490
2023-06-28T07:08:40.272Z,1541
2023-06-28T07:09:56.518Z,1541
2023-06-28T07:11:12.764Z,1535
2023-06-28T07:12:29.026Z,1541
2023-06-28T07:13:45.269Z,1546
2023-06-28T07:15:01.516Z,1552
2023-06-28T07:16:17.767Z,1575
2023-06-28T07:17:34.027Z,1625
2023-06-28T07:18:50.275Z,1704
2023-06-28T07:20:06.525Z,1726
2023-06-28T07:21:22.772Z,1698
2023-06-28T07:22:38.086Z,1586
2023-06-28T07:23:54.336Z,1501
2023-06-28T07:25:10.579Z,1468
2023-06-28T07:25:53.000Z,1462
2023-06-28T07:27:43.087Z,1490
2023-06-28T07:28:59.335Z,1546
2023-06-28T07:30:15.588Z,1614
2023-06-28T07:31:31.833Z,1670
2023-06-28T07:32:48.109Z,1726
2023-06-28T07:34:04.341Z,1766
2023-06-28T07:35:20.585Z,1771
2023-06-28T07:36:36.836Z,1811
2023-06-28T07:37:53.087Z,1878
2023-06-28T07:39:08.398Z,1980
2023-06-28T07:40:24.643Z,2092
2023-06-28T07:41:40.906Z,2199
2023-06-28T07:42:57.151Z,2098
2023-06-28T07:44:13.402Z,1951
2023-06-28T07:46:45.903Z,1861
2023-06-28T07:47:28.000Z,1845
2023-06-28T07:49:18.401Z,1771
2023-06-28T07:50:34.649Z,1755
2023-06-28T07:51:50.898Z,1743
2023-06-28T07:53:07.154Z,1732
2023-06-28T07:54:23.403Z,1749
2023-06-28T07:55:38.713Z,1811
2023-06-28T07:56:54.960Z,1923
2023-06-28T07:58:11.216Z,2047
2023-06-28T07:58:53.000Z,2188
2023-06-28T08:00:43.710Z,2244
2023-06-28T08:01:59.970Z,2176
2023-06-28T08:03:16.219Z,2092
2023-06-28T08:04:32.469Z,2013
2023-06-28T08:05:48.717Z,1991
2023-06-28T08:07:04.971Z,2025
2023-06-28T08:08:21.221Z,2041
2023-06-28T08:09:37.477Z,2013
2023-06-28T08:10:53.722Z,2019
2023-06-28T08:12:09.036Z,2075
2023-06-28T08:13:25.284Z,2115
2023-06-28T08:14:41.538Z,2098
2023-06-28T08:15:57.787Z,2075
2023-06-28T08:17:14.042Z,2025
2023-06-28T08:18:30.297Z,1951
2023-06-28T08:19:46.538Z,1895
2023-06-28T08:21:02.784Z,1839
2023-06-28T08:22:19.049Z,1800
2023-06-28T08:23:35.291Z,1755
2023-06-28T08:24:51.550Z,1715
2023-06-28T08:26:07.796Z,1687
2023-06-28T08:27:24.047Z,1670
2023-06-28T08:28:39.356Z,1642
2023-06-28T08:29:55.606Z,1608
2023-06-28T08:31:11.847Z,1552
2023-06-28T08:32:28.108Z,1496
2023-06-28T08:33:44.354Z,1473
2023-06-28T08:35:00.606Z,1501
2023-06-28T08:36:16.861Z,1552
2023-06-28T08:37:33.107Z,1563
2023-06-28T08:38:49.360Z,1541
2023-06-28T08:40:05.602Z,1501
2023-06-28T08:41:21.865Z,1490
2023-06-28T08:42:38.110Z,1507
2023-06-28T08:43:54.363Z,1541
2023-06-28T08:45:10.609Z,1535
2023-06-28T08:46:25.924Z,1485
2023-06-28T08:47:42.169Z,1434
2023-06-28T08:48:24.000Z,1411
2023-06-28T08:50:14.668Z,1389
2023-06-28T08:51:30.953Z,1383
2023-06-28T08:52:13.000Z,1378
2023-06-28T08:54:03.417Z,1395
2023-06-28T08:55:19.675Z,1395
2023-06-28T08:56:35.928Z,1411
2023-06-28T08:57:52.176Z,1434
2023-06-28T08:59:08.428Z,1423
2023-06-28T09:02:57.179Z,1338
2023-06-28T09:04:13.430Z,1350
2023-06-28T09:05:28.735Z,1395
2023-06-28T09:08:01.239Z,1468
2023-06-28T09:08:43.000Z,1468
2023-06-28T09:10:33.744Z,1462
2023-06-28T09:11:49.063Z,1468
2023-06-28T09:13:04.369Z,1473
2023-06-28T09:14:20.631Z,1473
2023-06-28T09:15:36.881Z,1490
2023-06-28T09:16:53.125Z,1473
2023-06-28T09:19:25.633Z,1558
2023-06-28T09:20:08.000Z,1642
2023-06-28T09:21:58.131Z,1698
2023-06-28T09:23:14.383Z,1743
2023-06-28T09:24:30.628Z,1777
2023-06-28T09:25:46.885Z,1816
2023-06-28T09:27:03.126Z,1850
2023-06-28T09:28:19.378Z,1861
2023-06-28T09:30:51.881Z,1884
2023-06-28T09:32:08.141Z,1923
2023-06-28T09:33:24.000Z,1985
2023-06-28T09:34:39.705Z,2058
2023-06-28T09:35:55.014Z,2154
2023-06-28T09:37:11.266Z,2250
2023-06-28T09:38:27.522Z,2323
2023-06-28T09:39:43.770Z,2345
2023-06-28T09:41:00.019Z,2351
2023-06-28T09:42:16.274Z,2401
2023-06-28T09:43:32.529Z,2458
2023-06-28T09:44:48.786Z,2475
2023-06-28T09:47:21.274Z,2469
2023-06-28T09:48:37.523Z,2469
2023-06-28T09:49:53.792Z,2503
2023-06-28T09:51:10.026Z,2598
2023-06-28T09:52:26.274Z,2688
2023-06-28T09:53:42.529Z,2745
2023-06-28T09:54:58.776Z,2801
2023-06-28T09:56:15.020Z,2902
2023-06-28T09:57:30.322Z,3003
2023-06-28T09:58:12.000Z,3071
2023-06-28T10:00:02.831Z,3071
2023-06-28T10:01:19.072Z,2992
2023-06-28T10:02:34.399Z,2930
2023-06-28T10:03:50.650Z,2936
2023-06-28T10:05:05.966Z,2953
2023-06-28T10:06:22.212Z,2925
2023-06-28T10:07:38.464Z,2896
2023-06-28T10:08:54.709Z,2801
2023-06-28T10:10:10.960Z,2975
2023-06-28T10:11:27.215Z,2705
2023-06-28T10:12:43.467Z,2553
2023-06-28T10:13:59.714Z,2525
2023-06-28T10:15:15.040Z,2626
2023-06-28T10:16:31.292Z,2790
2023-06-28T10:17:47.541Z,2683
2023-06-28T10:19:02.850Z,2458
2023-06-28T10:20:19.111Z,2250
2023-06-28T10:21:35.354Z,2120
2023-06-28T10:24:07.852Z,2126
2023-06-28T10:25:24.100Z,2171
2023-06-28T10:26:40.349Z,2216
2023-06-28T10:27:56.600Z,2255
2023-06-28T10:29:12.851Z,2356
2023-06-28T10:30:29.091Z,2418
2023-06-28T10:31:45.364Z,2373
2023-06-28T10:33:01.589Z,2227
2023-06-28T10:34:17.843Z,2154
2023-06-28T10:35:33.147Z,2216
2023-06-28T10:36:49.391Z,2323
2023-06-28T10:38:05.644Z,2379
2023-06-28T10:39:21.890Z,2368
2023-06-28T10:40:38.140Z,2424
2023-06-28T10:41:54.390Z,2463
2023-06-28T10:43:10.646Z,2373
2023-06-28T10:44:26.886Z,2272
2023-06-28T10:45:43.133Z,2221
2023-06-28T10:46:59.375Z,2199
2023-06-28T10:48:15.627Z,2244
2023-06-28T10:49:31.873Z,2300
2023-06-28T10:50:48.121Z,2311
2023-06-28T10:52:03.434Z,2323
2023-06-28T10:53:19.684Z,2345
2023-06-28T10:54:35.930Z,2373
2023-06-28T10:55:18.000Z,2418
2023-06-28T10:57:08.430Z,2463
2023-06-28T10:58:24.667Z,2351
2023-06-28T10:59:40.919Z,2255
2023-06-28T11:00:57.159Z,2227
2023-06-28T11:02:13.409Z,2407
2023-06-28T11:03:29.658Z,2615
2023-06-28T11:04:45.914Z,2868
2023-06-28T11:06:02.160Z,3684
2023-06-28T11:07:18.419Z,3273
2023-06-28T11:08:33.704Z,3560
2023-06-28T11:09:49.943Z,3251
2023-06-28T11:11:06.195Z,3003
2023-06-28T11:12:22.441Z,2964
2023-06-28T11:13:38.688Z,3076
2023-06-28T11:14:54.945Z,3161
2023-06-28T11:16:11.193Z,3313
2023-06-28T11:17:27.439Z,4078
2023-06-28T11:18:43.686Z,4876
2023-06-28T11:19:59.933Z,5518
2023-06-28T11:21:16.177Z,3256
2023-06-28T11:22:32.427Z,3127
2023-06-28T11:23:48.670Z,2885
2023-06-28T11:25:03.984Z,2756
2023-06-28T11:26:20.230Z,2818
2023-06-28T11:27:36.473Z,3273
2023-06-28T11:30:08.965Z,4950
2023-06-28T11:31:25.221Z,5557
2023-06-28T11:32:41.474Z,6345
2023-06-28T11:33:57.719Z,6795
2023-06-28T11:35:13.963Z,6288
2023-06-28T11:36:30.211Z,6862
2023-06-28T11:37:46.456Z,6345
2023-06-28T11:39:02.713Z,5394
2023-06-28T11:40:18.954Z,4786
2023-06-28T11:41:35.205Z,3701
2023-06-28T11:42:17.000Z,3560
2023-06-28T11:44:06.767Z,3532
2023-06-28T11:45:23.009Z,3510
2023-06-28T11:46:39.266Z,3515
2023-06-28T11:47:55.511Z,3324
2023-06-28T11:49:11.748Z,3228
2023-06-28T11:50:27.999Z,3026
2023-06-28T11:51:44.253Z,2975
2023-06-28T11:52:26.000Z,2992
2023-06-28T11:54:16.758Z,3026
2023-06-28T11:55:32.997Z,3110
2023-06-28T11:56:49.247Z,3245
2023-06-28T11:58:05.491Z,3459
2023-06-28T11:59:21.737Z,3633
2023-06-28T12:00:37.049Z,4061
2023-06-28T12:01:53.297Z,3819
2023-06-28T12:03:09.551Z,3960
2023-06-28T12:04:25.798Z,3785
2023-06-28T12:05:42.039Z,3616
2023-06-28T12:06:58.292Z,3498
2023-06-28T12:08:14.541Z,3397
2023-06-28T12:09:30.791Z,3290
2023-06-28T12:10:47.033Z,3166
2023-06-28T12:12:03.277Z,3060
2023-06-28T12:13:19.534Z,2919
2023-06-28T12:14:35.782Z,2756
2023-06-28T12:15:52.025Z,2649
2023-06-28T12:17:08.276Z,2576
2023-06-28T12:18:23.575Z,2520
2023-06-28T12:19:39.829Z,2458
2023-06-28T12:20:56.072Z,2424
2023-06-28T12:22:12.328Z,2401
2023-06-28T12:23:28.569Z,2407
2023-06-28T12:24:44.832Z,2430
2023-06-28T12:26:01.064Z,2497
2023-06-28T12:27:17.314Z,2565
2023-06-28T12:28:32.645Z,2643
2023-06-28T12:29:48.886Z,2677
2023-06-28T12:31:05.137Z,2733
2023-06-28T12:32:21.378Z,2773
2023-06-28T12:33:37.632Z,2801
2023-06-28T12:34:53.882Z,2756
2023-06-28T12:36:10.121Z,2739
2023-06-28T12:37:26.377Z,2716
2023-06-28T12:38:42.620Z,2666
2023-06-28T12:39:58.868Z,2632
2023-06-28T12:41:15.123Z,2660
2023-06-28T12:42:31.368Z,2745
2023-06-28T12:43:47.616Z,2874
2023-06-28T12:45:03.862Z,3099
2023-06-28T12:46:20.110Z,3015
2023-06-28T12:47:35.426Z,3037
2023-06-28T12:48:51.668Z,3076
2023-06-28T12:49:34.000Z,3099
2023-06-28T12:51:24.166Z,3166
2023-06-28T12:52:40.412Z,3301
2023-06-28T12:53:56.659Z,3369
2023-06-28T12:55:12.923Z,3510
2023-06-28T12:55:55.000Z,3780
2023-06-28T12:57:45.405Z,3763
2023-06-28T12:59:01.661Z,3802
2023-06-28T13:00:17.898Z,3330
2023-06-28T13:01:34.150Z,3116
2023-06-28T13:04:06.645Z,2795
2023-06-28T13:05:21.941Z,2778
2023-06-28T13:06:38.191Z,2705
2023-06-28T13:07:54.441Z,2638
2023-06-28T13:10:26.941Z,2306
2023-06-28T13:11:43.187Z,2255
2023-06-28T13:12:59.435Z,2345
2023-06-28T13:14:15.681Z,2497
2023-06-28T13:15:31.940Z,2610
2023-06-28T13:16:48.180Z,2851
2023-06-28T13:18:04.425Z,2947
2023-06-28T13:19:20.681Z,2863
2023-06-28T13:20:36.925Z,2896
2023-06-28T13:21:52.230Z,2998
2023-06-28T13:23:08.490Z,3105
2023-06-28T13:24:24.731Z,5844
2023-06-28T13:25:40.975Z,3487
2023-06-28T13:26:57.219Z,4938
2023-06-28T13:28:13.474Z,5163
2023-06-28T13:29:29.724Z,4680
2023-06-28T13:32:02.211Z,3616
2023-06-28T13:33:18.467Z,3217
2023-06-28T13:34:34.719Z,3054
2023-06-28T13:35:50.964Z,2919
2023-06-28T13:37:07.214Z,2964
2023-06-28T13:38:22.517Z,3015
2023-06-28T13:39:38.771Z,3105
2023-06-28T13:40:55.020Z,3352
2023-06-28T13:42:11.267Z,3240
2023-06-28T13:43:27.516Z,3178
2023-06-28T13:44:43.756Z,3673
2023-06-28T13:46:00.012Z,3223
2023-06-28T13:48:32.509Z,3099
2023-06-28T13:49:48.752Z,3099
2023-06-28T13:51:05.004Z,2936
2023-06-28T13:52:21.254Z,2840
2023-06-28T13:53:37.510Z,2761
2023-06-28T13:54:52.806Z,2716
2023-06-28T13:56:09.062Z,2722
2023-06-28T13:57:25.305Z,2773
2023-06-28T13:58:41.553Z,2840
2023-06-28T13:59:57.802Z,3003
2023-06-28T14:01:14.050Z,3363
2023-06-28T14:02:30.295Z,3791
2023-06-28T14:03:46.545Z,3487
2023-06-28T14:05:02.794Z,3189
2023-06-28T14:06:19.046Z,3071
2023-06-28T14:07:35.294Z,2902
2023-06-28T14:08:51.544Z,2806
2023-06-28T14:10:07.789Z,2587
2023-06-28T14:11:23.101Z,2491
2023-06-28T14:12:39.349Z,2446
2023-06-28T14:13:55.588Z,2463
2023-06-28T14:15:11.846Z,2531
2023-06-28T14:16:28.089Z,2711
2023-06-28T14:17:44.340Z,2745
2023-06-28T14:19:00.591Z,2840
2023-06-28T14:20:16.840Z,2913
2023-06-28T14:21:33.079Z,3403
2023-06-28T14:22:49.330Z,3150
2023-06-28T14:24:05.586Z,3723
2023-06-28T14:25:21.838Z,3532
2023-06-28T14:26:38.088Z,3121
2023-06-28T14:27:54.325Z,3172
2023-06-28T14:29:09.640Z,3245
2023-06-28T14:30:25.884Z,3560
2023-06-28T14:31:42.130Z,4741
2023-06-28T14:32:58.377Z,5321
2023-06-28T14:34:14.627Z,5529
2023-06-28T14:35:30.881Z,6716
2023-06-28T14:36:47.122Z,6710
2023-06-28T14:38:03.374Z,5591
2023-06-28T14:39:19.619Z,5225
2023-06-28T14:40:35.873Z,5647
2023-06-28T14:41:52.127Z,5135
2023-06-28T14:43:08.370Z,6125
2023-06-28T14:44:24.616Z,5872
2023-06-28T14:45:39.932Z,5355
2023-06-28T14:46:56.175Z,5248
2023-06-28T14:48:12.425Z,4843
2023-06-28T14:49:28.673Z,4770
2023-06-28T14:50:44.914Z,4590
2023-06-28T14:51:27.000Z,4983
2023-06-28T14:53:17.413Z,5017
2023-06-28T14:54:33.669Z,4730
2023-06-28T14:55:49.918Z,4061
2023-06-28T14:57:06.173Z,3335
2023-06-28T14:58:22.407Z,3206
2023-06-28T14:59:38.676Z,3144
2023-06-28T15:00:54.911Z,3448
2023-06-28T15:02:10.204Z,3290
2023-06-28T15:04:42.703Z,3296
2023-06-28T15:05:58.959Z,2846
2023-06-28T15:07:15.196Z,3093
2023-06-28T15:08:31.450Z,2880
2023-06-28T15:09:47.697Z,3133
2023-06-28T15:11:03.951Z,3144
2023-06-28T15:12:20.193Z,3521
2023-06-28T15:13:36.448Z,3166
2023-06-28T15:14:52.696Z,2975
2023-06-28T15:16:08.951Z,3133
2023-06-28T15:17:25.190Z,2458
2023-06-28T15:18:41.442Z,2430
2023-06-28T15:19:56.747Z,2413
2023-06-28T15:21:12.996Z,2463
2023-06-28T15:22:29.243Z,2548
2023-06-28T15:23:45.491Z,2514
2023-06-28T15:25:01.742Z,2508
2023-06-28T15:26:17.992Z,2553
2023-06-28T15:27:34.240Z,3206
2023-06-28T15:28:50.501Z,2559
2023-06-28T15:30:06.745Z,2840
2023-06-28T15:31:22.989Z,2655
2023-06-28T15:32:39.248Z,3931
2023-06-28T15:33:55.484Z,2514
2023-06-28T15:35:11.730Z,3009
2023-06-28T15:36:27.992Z,2379
2023-06-28T15:37:43.276Z,2446
2023-06-28T15:38:59.527Z,2655
2023-06-28T15:40:15.782Z,2565
2023-06-28T15:41:32.027Z,2874
2023-06-28T15:42:48.267Z,2520
2023-06-28T15:44:04.512Z,2700
2023-06-28T15:45:20.792Z,3515
2023-06-28T15:46:37.024Z,3358
2023-06-28T15:47:53.266Z,3836
2023-06-28T15:49:09.518Z,3268
2023-06-28T15:50:25.757Z,3487
2023-06-28T15:51:42.012Z,2424
2023-06-28T15:52:58.255Z,2295
2023-06-28T15:54:13.565Z,2188
2023-06-28T15:55:29.816Z,2143
2023-06-28T15:56:46.064Z,2199
2023-06-28T15:58:02.306Z,2131
2023-06-28T15:59:18.566Z,2148
2023-06-28T16:00:34.812Z,2160
2023-06-28T16:01:51.053Z,2221
2023-06-28T16:03:07.309Z,2368
2023-06-28T16:04:23.551Z,2497
2023-06-28T16:05:39.807Z,2244
2023-06-28T16:06:56.055Z,2171
2023-06-28T16:08:12.309Z,2255
2023-06-28T16:09:28.559Z,3189
2023-06-28T16:10:44.794Z,2430
2023-06-28T16:12:01.047Z,2086
2023-06-28T16:13:16.354Z,2148
2023-06-28T16:14:32.603Z,2908
2023-06-28T16:15:48.848Z,3195
2023-06-28T16:17:05.099Z,3003
2023-06-28T16:18:21.349Z,3217
2023-06-28T16:19:37.591Z,2795
2023-06-28T16:20:53.850Z,3150
2023-06-28T16:22:10.098Z,2795
2023-06-28T16:23:26.346Z,3285
2023-06-28T16:24:42.588Z,3369
2023-06-28T16:25:58.843Z,2278
2023-06-28T16:27:15.097Z,2491
2023-06-28T16:29:47.591Z,3448
2023-06-28T16:31:02.881Z,3324
2023-06-28T16:32:19.136Z,3515
2023-06-28T16:33:35.385Z,3673
2023-06-28T16:34:51.631Z,3251
2023-06-28T16:36:07.879Z,3301
2023-06-28T16:37:24.132Z,3459
2023-06-28T16:38:40.371Z,2283
2023-06-28T16:39:56.631Z,1867
2023-06-28T16:41:12.897Z,1749
2023-06-28T16:42:29.131Z,1681
2023-06-28T16:43:44.443Z,1631
2023-06-28T16:46:16.938Z,1636
2023-06-28T16:47:33.188Z,1766
2023-06-28T16:48:49.434Z,2306
2023-06-28T16:50:05.700Z,1923
2023-06-28T16:51:21.935Z,1749
2023-06-28T16:52:38.185Z,1822
2023-06-28T16:53:54.427Z,1856
2023-06-28T16:55:10.681Z,1901
2023-06-28T16:56:26.934Z,1625
2023-06-28T16:57:43.175Z,1558
2023-06-28T16:58:59.427Z,1468
2023-06-28T17:00:14.719Z,1366
2023-06-28T17:01:30.970Z,1282
2023-06-28T17:04:03.469Z,1186
2023-06-28T17:05:19.720Z,1164
2023-06-28T17:06:35.964Z,1147
2023-06-28T17:07:52.217Z,1102
2023-06-28T17:09:08.462Z,1057
2023-06-28T17:10:24.711Z,1012
2023-06-28T17:11:40.958Z,978
2023-06-28T17:12:57.202Z,939
2023-06-28T17:14:13.460Z,911
2023-06-28T17:15:29.705Z,894
2023-06-28T17:16:44.998Z,905
2023-06-28T17:18:01.255Z,911
2023-06-28T17:18:43.000Z,916
2023-06-28T17:20:33.741Z,928
2023-06-28T17:21:50.011Z,933
2023-06-28T17:23:06.242Z,950
2023-06-28T17:24:22.500Z,961
2023-06-28T17:25:38.738Z,978
2023-06-28T17:26:54.995Z,990
2023-06-28T17:28:11.234Z,1023
2023-06-28T17:29:27.487Z,1057
2023-06-28T17:30:43.771Z,1063
2023-06-28T17:31:59.986Z,1305
2023-06-28T17:33:15.304Z,1327
2023-06-28T17:34:31.534Z,1305
2023-06-28T17:35:47.786Z,1417
2023-06-28T17:37:04.030Z,1676
2023-06-28T17:38:20.287Z,1974
2023-06-28T17:39:36.536Z,1541
2023-06-28T17:40:52.783Z,1209
2023-06-28T17:42:09.026Z,1192
2023-06-28T17:43:25.274Z,1833
2023-06-28T17:44:41.531Z,1951
2023-06-28T17:45:57.774Z,1940
2023-06-28T17:47:14.030Z,2013
2023-06-28T17:48:30.290Z,1991